Time;durP1;ratioP1;P1;durP2;ratioP2;P2;SDS_P1;SDS_P2;PMS_P1;PMS_P2;Temp;Humidity;BMP_temperature;BMP_pressure;BME280_temperature;BME280_humidity;BME280_pressure;Samples;Min_cycle;Max_cycle;Signal;HPM_P1;HPM_P2
2022/12/08 00:02:18;;;;;;;70.68;31.73;;;;;;;1.91;100.00;97534.25;10244094;28;20039;-57
2022/12/08 00:12:34;;;;;;;89.07;38.83;;;;;;;2.20;100.00;97553.81;10245629;28;20506;-56
2022/12/08 00:17:33;;;;;;;105.75;39.58;;;;;;;2.33;100.00;97564.47;10246716;28;20056;-56
2022/12/08 00:22:32;;;;;;;379.85;78.82;;;;;;;2.44;100.00;97569.91;10245183;28;20030;-56
2022/12/08 00:27:31;;;;;;;352.23;64.57;;;;;;;2.52;100.00;97575.22;10244584;28;20424;-56
2022/12/08 00:32:30;;;;;;;114.47;27.65;;;;;;;2.68;100.00;97576.53;10245368;28;20030;-56
2022/12/08 00:37:29;;;;;;;108.28;25.35;;;;;;;2.82;100.00;97575.19;10244380;28;20042;-56
2022/12/08 00:42:28;;;;;;;57.65;21.58;;;;;;;2.95;100.00;97581.50;10242918;28;20468;-56
2022/12/08 00:47:27;;;;;;;66.00;23.67;;;;;;;3.13;100.00;97578.53;10245244;28;20041;-56
2022/12/08 00:52:26;;;;;;;78.90;28.65;;;;;;;3.21;100.00;97582.16;10244484;28;20042;-56
2022/12/08 00:57:25;;;;;;;73.32;27.65;;;;;;;3.32;100.00;97570.47;10244150;28;20034;-56
2022/12/08 01:02:24;;;;;;;78.95;30.45;;;;;;;3.37;100.00;97574.00;10244497;28;20049;-56
2022/12/08 01:07:23;;;;;;;91.35;32.63;;;;;;;3.47;100.00;97571.66;10243597;28;20580;-56
2022/12/08 01:12:22;;;;;;;98.47;33.10;;;;;;;3.56;100.00;97580.44;10243791;28;20038;-57
2022/12/08 01:17:21;;;;;;;;;;;;;;;3.53;100.00;97576.94;10244106;28;20085;-56
2022/12/08 01:22:20;;;;;;;101.13;34.00;;;;;;;3.38;100.00;97575.75;10243325;28;19914;-56
2022/12/08 01:27:19;;;;;;;82.18;32.03;;;;;;;3.24;100.00;97577.13;10241039;28;20022;-56
2022/12/08 01:32:18;;;;;;;126.13;36.53;;;;;;;3.14;100.00;97585.38;10243906;28;20031;-56
2022/12/08 01:37:17;;;;;;;97.53;35.53;;;;;;;3.06;100.00;97580.06;10243347;28;20389;-56
2022/12/08 01:42:21;;;;;;;78.50;31.30;;;;;;;3.02;100.00;97570.56;10242891;28;20080;-56
2022/12/08 01:47:22;;;;;;;75.50;31.38;;;;;;;3.12;100.00;97571.66;10243615;28;20109;-56
2022/12/08 01:52:36;;;;;;;59.60;25.75;;;;;;;3.18;100.00;97565.00;10242967;28;20141;-56
2022/12/08 01:57:46;;;;;;;47.42;24.00;;;;;;;3.18;100.00;97552.19;10242183;28;20061;-56
2022/12/08 02:02:53;;;;;;;49.60;21.23;;;;;;;3.27;100.00;97550.69;10243756;28;20121;-56
2022/12/08 02:07:54;;;;;;;34.42;14.50;;;;;;;3.33;100.00;97546.56;10248846;28;20436;-56
2022/12/08 02:12:55;;;;;;;38.08;16.50;;;;;;;3.31;100.00;97537.97;10250746;28;20129;-56
2022/12/08 02:18:03;;;;;;;41.40;17.00;;;;;;;3.23;100.00;97527.50;10249893;28;20469;-56
2022/12/08 02:23:07;;;;;;;40.28;17.63;;;;;;;3.24;100.00;97525.84;10249779;28;20062;-56
2022/12/08 02:28:35;;;;;;;42.10;18.60;;;;;;;3.35;100.00;97534.63;10248471;28;20097;-56
2022/12/08 02:33:58;;;;;;;46.83;19.08;;;;;;;3.43;100.00;97538.25;10249860;28;20160;-56
2022/12/08 02:39:09;;;;;;;38.22;16.65;;;;;;;3.42;100.00;97539.09;10249946;28;20061;-56
2022/12/08 02:44:23;;;;;;;49.08;19.25;;;;;;;3.42;100.00;97536.53;10249080;28;20070;-56
2022/12/08 02:49:33;;;;;;;42.40;18.85;;;;;;;3.32;100.00;97544.81;10246833;28;20113;-56
2022/12/08 02:54:34;;;;;;;44.20;19.40;;;;;;;3.25;100.00;97537.81;10250110;28;20122;-56
2022/12/08 02:59:48;;;;;;;45.67;19.88;;;;;;;3.05;100.00;97537.34;10248126;28;20136;-56
2022/12/08 03:05:15;;;;;;;46.03;19.48;;;;;;;3.09;100.00;97535.69;10248405;28;20065;-56
2022/12/08 03:10:17;;;;;;;49.08;20.58;;;;;;;3.16;100.00;97538.44;10248735;28;20066;-57
2022/12/08 03:15:19;;;;;;;52.22;21.75;;;;;;;3.26;100.00;97529.31;10246988;28;20125;-57
2022/12/08 03:20:22;;;;;;;46.45;21.73;;;;;;;3.29;100.00;97524.25;10247891;28;20503;-57
2022/12/08 03:25:23;;;;;;;52.92;22.08;;;;;;;3.40;100.00;97516.78;10247373;28;20117;-57
2022/12/08 03:30:22;;;;;;;65.63;25.88;;;;;;;3.50;100.00;97520.44;10247884;28;20117;-57
2022/12/08 03:35:30;;;;;;;57.60;24.02;;;;;;;3.45;100.00;97517.78;10245765;28;20030;-57
2022/12/08 03:40:29;;;;;;;68.85;23.45;;;;;;;3.46;100.00;97516.94;10247053;28;20129;-57
2022/12/08 03:45:28;;;;;;;60.58;21.33;;;;;;;3.48;100.00;97519.53;10246910;28;20062;-57
2022/12/08 03:50:27;;;;;;;73.75;23.23;;;;;;;3.29;100.00;97519.13;10246762;28;20481;-57
2022/12/08 03:55:26;;;;;;;65.80;23.73;;;;;;;3.26;100.00;97524.19;10246442;28;20390;-57
2022/12/08 04:00:25;;;;;;;62.65;23.63;;;;;;;3.31;100.00;97535.41;10246320;28;20081;-57
2022/12/08 04:05:24;;;;;;;73.80;20.33;;;;;;;3.05;100.00;97539.00;10245721;28;20425;-57
2022/12/08 04:10:23;;;;;;;63.08;21.95;;;;;;;3.05;100.00;97544.13;10245257;28;20034;-57
2022/12/08 04:15:22;;;;;;;47.92;19.30;;;;;;;3.18;100.00;97541.06;10244587;28;20029;-58
2022/12/08 04:20:21;;;;;;;43.55;18.98;;;;;;;3.26;100.00;97556.63;10244963;28;20601;-57
2022/12/08 04:25:20;;;;;;;52.03;18.38;;;;;;;3.35;100.00;97542.31;10245355;28;20046;-57
2022/12/08 04:30:19;;;;;;;43.60;17.52;;;;;;;3.46;100.00;97563.09;10245614;28;20031;-57
2022/12/08 04:35:18;;;;;;;46.38;19.40;;;;;;;3.46;100.00;97563.09;10244654;28;20034;-57
2022/12/08 04:40:17;;;;;;;51.92;20.77;;;;;;;3.51;100.00;97565.78;10244872;28;20550;-57
2022/12/08 04:45:16;;;;;;;45.83;17.15;;;;;;;3.62;100.00;97565.19;10244847;28;20066;-57
2022/12/08 04:50:15;;;;;;;104.78;22.27;;;;;;;3.66;100.00;97571.28;10244286;28;20121;-57
2022/12/08 04:55:14;;;;;;;65.78;19.77;;;;;;;3.66;100.00;97573.84;10245324;28;20322;-57
2022/12/08 05:00:14;;;;;;;56.05;20.15;;;;;;;3.71;100.00;97573.97;10242734;28;20034;-57
2022/12/08 05:05:13;;;;;;;37.65;17.10;;;;;;;3.75;100.00;97576.63;10243852;28;20134;-57
2022/12/08 05:10:12;;;;;;;88.75;20.95;;;;;;;3.80;100.00;97575.03;10243556;28;20129;-57
2022/12/08 05:15:10;;;;;;;75.70;21.85;;;;;;;3.74;100.00;97574.03;10243984;28;20034;-57
2022/12/08 05:20:10;;;;;;;77.97;23.02;;;;;;;3.67;100.00;97580.72;10243618;28;20040;-57
2022/12/08 05:25:09;;;;;;;93.85;28.42;;;;;;;3.58;100.00;97578.78;10243211;28;20073;-57
2022/12/08 05:30:08;;;;;;;;;;;;;;;3.54;100.00;97581.25;10243479;28;20149;-57
2022/12/08 05:35:07;;;;;;;130.60;33.10;;;;;;;3.43;100.00;97581.88;10243281;28;20012;-57
2022/12/08 05:40:07;;;;;;;98.15;31.20;;;;;;;3.21;100.00;97577.03;10240936;28;20066;-57
2022/12/08 05:45:06;;;;;;;;;;;;;;;3.19;100.00;97584.69;10244276;28;20121;-57
2022/12/08 05:50:05;;;;;;;114.18;27.65;;;;;;;3.08;100.00;97592.94;10240656;28;21003;-57
2022/12/08 05:55:05;;;;;;;91.07;23.45;;;;;;;2.77;100.00;97600.69;10242831;28;20499;-57
2022/12/08 06:00:05;;;;;;;77.28;24.67;;;;;;;2.74;100.00;97585.22;10243402;28;20882;-57
2022/12/08 06:05:04;;;;;;;89.72;24.58;;;;;;;2.91;100.00;97606.19;10237972;28;20136;-57
2022/12/08 06:10:04;;;;;;;;;;;;;;;3.09;100.00;97597.22;10234334;28;20142;-57
2022/12/08 06:15:03;;;;;;;99.57;43.83;;;;;;;3.18;100.00;97592.34;10233202;28;20490;-57
2022/12/08 06:20:02;;;;;;;67.63;23.52;;;;;;;3.29;100.00;97603.75;10241586;28;20100;-57
2022/12/08 06:25:02;;;;;;;117.82;51.25;;;;;;;3.32;100.00;97606.38;10243282;28;20126;-57
2022/12/08 06:30:01;;;;;;;65.22;28.75;;;;;;;3.38;100.00;97610.81;10241594;28;20121;-57
2022/12/08 06:35:00;;;;;;;103.43;43.08;;;;;;;3.52;100.00;97609.44;10242716;28;20069;-57
2022/12/08 06:39:59;;;;;;;71.40;25.85;;;;;;;3.63;100.00;97601.97;10240332;28;20049;-57
2022/12/08 06:44:59;;;;;;;66.80;25.02;;;;;;;3.60;100.00;97612.19;10256668;28;20586;-57
2022/12/08 06:49:58;;;;;;;65.35;27.33;;;;;;;3.65;100.00;97595.19;10243820;28;20125;-57
2022/12/08 06:54:57;;;;;;;68.47;28.13;;;;;;;3.78;100.00;97593.81;10248045;28;20042;-57
2022/12/08 06:59:56;;;;;;;65.55;27.95;;;;;;;3.83;100.00;97598.19;10248436;28;20045;-57
2022/12/08 07:04:55;;;;;;;103.00;41.53;;;;;;;3.89;100.00;97599.16;10248137;28;20406;-57
2022/12/08 07:09:54;;;;;;;130.07;64.35;;;;;;;3.84;100.00;97596.50;10248491;28;20042;-57
2022/12/08 07:14:53;;;;;;;115.95;50.70;;;;;;;3.92;100.00;97594.13;10247860;28;20038;-57
2022/12/08 07:19:52;;;;;;;85.43;35.22;;;;;;;4.06;100.00;97595.28;10248321;28;20366;-57
2022/12/08 07:24:50;;;;;;;88.57;38.42;;;;;;;4.23;100.00;97598.22;10247874;28;20038;-57
2022/12/08 07:29:49;;;;;;;89.50;37.00;;;;;;;4.14;100.00;97614.28;10244698;28;20037;-57
2022/12/08 07:34:48;;;;;;;174.38;76.60;;;;;;;4.18;100.00;97622.94;10247161;28;20030;-58
2022/12/08 07:39:47;;;;;;;115.03;51.40;;;;;;;4.34;100.00;97629.25;10248630;28;20026;-57
2022/12/08 07:44:46;;;;;;;89.80;40.70;;;;;;;4.64;100.00;97627.34;10247449;28;20038;-57
2022/12/08 07:49:45;;;;;;;150.02;71.85;;;;;;;4.95;100.00;97635.69;10247309;28;20034;-58
2022/12/08 07:54:44;;;;;;;38.97;20.80;;;;;;;5.28;100.00;97629.44;10249684;28;20065;-58
2022/12/08 07:59:43;;;;;;;32.97;18.13;;;;;;;5.55;99.63;97627.34;10249397;28;20034;-58
2022/12/08 08:04:42;;;;;;;31.42;17.75;;;;;;;5.79;97.51;97626.00;10248514;28;20129;-57
2022/12/08 08:09:41;;;;;;;50.70;26.40;;;;;;;5.74;95.47;97625.94;10248357;28;20116;-58
2022/12/08 08:14:40;;;;;;;49.35;27.17;;;;;;;5.69;95.24;97612.09;10248465;28;20413;-57
2022/12/08 08:19:39;;;;;;;69.07;36.58;;;;;;;5.79;95.79;97613.13;10247741;28;20034;-58
2022/12/08 08:24:38;;;;;;;77.30;41.00;;;;;;;5.91;95.08;97608.16;10247366;28;20045;-57
2022/12/08 08:29:37;;;;;;;79.82;43.28;;;;;;;5.88;95.03;97604.66;10245421;28;20030;-58
2022/12/08 08:34:36;;;;;;;81.95;43.50;;;;;;;5.83;93.11;97619.19;10247881;28;20053;-57
2022/12/08 08:39:35;;;;;;;84.70;44.70;;;;;;;5.67;93.03;97612.91;10247620;28;20117;-57
2022/12/08 08:44:34;;;;;;;87.05;46.65;;;;;;;5.44;92.97;97621.16;10247516;28;20832;-57
2022/12/08 08:49:33;;;;;;;78.72;39.55;;;;;;;5.41;94.01;97610.78;10246782;28;20527;-57
2022/12/08 08:54:33;;;;;;;68.18;35.85;;;;;;;5.49;93.43;97609.22;10247589;28;20064;-57
2022/12/08 08:59:31;;;;;;;;;;;;;;;4.99;93.46;97619.47;10247377;28;20141;-57
2022/12/08 09:04:30;;;;;;;67.90;33.42;;;;;;;4.86;94.44;97620.06;10247267;28;20012;-57
2022/12/08 09:09:30;;;;;;;57.53;33.25;;;;;;;4.83;94.65;97605.44;10246678;28;20026;-57
2022/12/08 09:14:28;;;;;;;;;;;;;;;5.09;95.53;97608.53;10246143;28;20133;-57
2022/12/08 09:19:27;;;;;;;42.28;23.20;;;;;;;5.53;95.64;97603.28;10246247;28;19986;-57
2022/12/08 09:24:26;;;;;;;42.58;23.27;;;;;;;5.78;94.03;97585.63;10246403;28;20050;-58
2022/12/08 09:29:25;;;;;;;46.30;26.25;;;;;;;5.96;93.95;97593.63;10245047;28;20032;-57
2022/12/08 09:34:24;;;;;;;53.70;28.00;;;;;;;6.06;93.34;97581.75;10246713;28;20026;-58
2022/12/08 09:39:23;;;;;;;54.75;29.80;;;;;;;6.16;92.63;97567.28;10245477;28;20027;-58
2022/12/08 09:44:51;;;;;;;64.03;36.40;;;;;;;6.42;92.53;97565.03;10245976;28;20561;-58
2022/12/08 09:50:06;;;;;;;69.38;38.67;;;;;;;6.48;90.79;97559.97;10245766;28;20062;-57
2022/12/08 09:55:40;;;;;;;91.90;48.20;;;;;;;6.55;89.71;97553.16;10245395;28;20149;-58
2022/12/08 10:00:39;;;;;;;92.55;51.70;;;;;;;6.51;89.25;97541.94;10242800;28;20126;-57
2022/12/08 10:05:46;;;;;;;102.45;57.90;;;;;;;6.63;90.28;97527.47;10245037;28;20046;-58
2022/12/08 10:11:11;;;;;;;85.90;49.17;;;;;;;7.02;88.64;97522.72;10244428;28;20054;-58
2022/12/08 10:16:39;;;;;;;88.63;48.90;;;;;;;7.40;87.90;97516.19;10244708;28;20065;-58
2022/12/08 10:21:39;;;;;;;84.85;47.92;;;;;;;7.56;87.64;97519.75;10244082;28;20548;-58
2022/12/08 10:26:38;;;;;;;103.13;56.55;;;;;;;7.77;86.65;97508.69;10249693;28;20125;-58
2022/12/08 10:31:37;;;;;;;88.63;50.00;;;;;;;7.79;85.44;97506.97;10250156;28;20121;-57
2022/12/08 10:36:47;;;;;;;161.73;80.40;;;;;;;7.81;84.69;97498.38;10252405;28;20065;-57
2022/12/08 10:41:46;;;;;;;103.75;60.40;;;;;;;7.93;84.56;97505.34;10247396;28;20125;-57
2022/12/08 10:46:45;;;;;;;89.88;53.17;;;;;;;8.10;84.06;97497.66;10250861;28;20046;-57
2022/12/08 10:51:44;;;;;;;87.50;54.15;;;;;;;8.27;82.87;97495.16;10252307;28;20081;-57
2022/12/08 10:56:53;;;;;;;94.00;58.03;;;;;;;8.41;82.23;97474.50;10251858;28;20037;-57
2022/12/08 11:01:56;;;;;;;95.13;56.63;;;;;;;8.46;82.96;97473.69;10250257;28;20134;-57
2022/12/08 11:06:55;;;;;;;107.35;67.35;;;;;;;8.80;82.21;97454.78;10246157;28;20421;-57
2022/12/08 11:11:57;;;;;;;98.00;57.70;;;;;;;8.87;80.91;97444.44;10246979;28;20449;-57
2022/12/08 11:17:09;;;;;;;123.82;73.22;;;;;;;8.94;80.01;97443.56;10245727;28;20130;-57
2022/12/08 11:22:32;;;;;;;77.03;46.67;;;;;;;9.02;80.74;97429.75;10245082;28;20058;-57
2022/12/08 11:27:33;;;;;;;81.78;51.15;;;;;;;9.20;80.29;97406.47;10245972;28;20563;-57
2022/12/08 11:32:33;;;;;;;88.25;49.33;;;;;;;9.57;79.75;97406.44;10248059;28;20129;-57
2022/12/08 11:37:38;;;;;;;78.65;47.83;;;;;;;9.89;79.94;97405.47;10245770;28;20057;-57
2022/12/08 11:43:03;;;;;;;78.20;48.47;;;;;;;10.25;78.81;97400.97;10246889;28;20113;-57
2022/12/08 11:48:13;;;;;;;65.03;43.60;;;;;;;10.59;77.69;97399.06;10243583;28;20616;-57
2022/12/08 11:53:50;;;;;;;53.33;37.60;;;;;;;10.63;76.33;97390.34;10247612;28;20074;-58
2022/12/08 11:58:56;;;;;;;46.75;29.73;;;;;;;10.54;76.57;97385.22;10245685;28;20069;-58
2022/12/08 12:04:19;;;;;;;37.15;23.38;;;;;;;10.57;76.96;97375.69;10246069;28;20085;-58
2022/12/08 12:09:43;;;;;;;39.80;26.30;;;;;;;10.70;77.69;97378.19;10246154;28;20064;-58
2022/12/08 12:14:51;;;;;;;149.95;94.53;;;;;;;10.78;77.43;97379.00;10245607;28;20068;-58
2022/12/08 12:19:52;;;;;;;60.20;39.30;;;;;;;11.02;77.14;97373.63;10245247;28;20523;-57
2022/12/08 12:24:52;;;;;;;36.70;23.35;;;;;;;11.26;76.05;97371.69;10245653;28;20121;-58
2022/12/08 12:30:00;;;;;;;38.50;24.33;;;;;;;11.43;75.61;97374.09;10244770;28;20054;-58
2022/12/08 12:35:00;;;;;;;31.70;19.23;;;;;;;11.43;74.83;97372.38;10244963;28;20127;-58
2022/12/08 12:40:05;;;;;;;35.50;25.77;;;;;;;11.60;74.03;97366.16;10244814;28;20358;-58
2022/12/08 12:45:16;;;;;;;31.67;22.00;;;;;;;11.32;72.77;97365.59;10242916;28;20421;-58
2022/12/08 12:50:33;;;;;;;26.48;16.38;;;;;;;11.08;73.12;97370.13;10243651;28;20129;-58
2022/12/08 12:55:44;;;;;;;34.47;24.48;;;;;;;11.27;73.82;97365.63;10243361;28;20069;-58
2022/12/08 13:00:43;;;;;;;29.05;20.33;;;;;;;11.42;73.42;97351.59;10244352;28;20062;-57
2022/12/08 13:05:51;;;;;;;84.10;75.10;;;;;;;11.56;73.28;97348.84;10238875;28;20042;-57
2022/12/08 13:11:05;;;;;;;20.75;14.77;;;;;;;11.65;71.51;97349.59;10238739;28;20121;-57
2022/12/08 13:16:17;;;;;;;35.15;21.00;;;;;;;11.65;71.29;97353.94;10240653;28;20133;-57
2022/12/08 13:21:20;;;;;;;21.20;14.88;;;;;;;11.65;71.30;97360.00;10242280;28;20142;-57
2022/12/08 13:26:26;;;;;;;18.65;12.35;;;;;;;11.60;71.94;97340.16;10237024;28;20507;-57
2022/12/08 13:31:34;;;;;;;50.22;30.02;;;;;;;11.62;72.67;97348.78;10241014;28;20133;-58
2022/12/08 13:36:37;;;;;;;66.00;41.67;;;;;;;11.53;72.30;97349.75;10242598;28;20154;-58
2022/12/08 13:41:47;;;;;;;30.85;22.52;;;;;;;11.50;71.99;97341.97;10240422;28;20116;-58
2022/12/08 13:46:50;;;;;;;66.85;38.70;;;;;;;11.45;72.71;97347.25;10240283;28;20062;-58
2022/12/08 13:51:52;;;;;;;70.47;46.92;;;;;;;11.30;72.70;97339.59;10242716;28;20133;-58
2022/12/08 13:56:52;;;;;;;35.42;24.20;;;;;;;11.21;73.16;97353.53;10240744;28;20061;-58
2022/12/08 14:01:51;;;;;;;29.67;20.73;;;;;;;11.12;74.10;97347.59;10247200;28;20077;-58
2022/12/08 14:06:57;;;;;;;39.90;22.77;;;;;;;10.98;74.46;97356.34;10249887;28;20027;-58
2022/12/08 14:11:58;;;;;;;49.70;33.88;;;;;;;10.83;74.88;97348.69;10249613;28;20534;-58
2022/12/08 14:17:01;;;;;;;32.28;22.25;;;;;;;10.58;75.76;97355.78;10249127;28;20121;-58
2022/12/08 14:22:11;;;;;;;33.17;23.67;;;;;;;10.44;76.19;97342.94;10248611;28;20238;-58
2022/12/08 14:27:15;;;;;;;39.33;24.52;;;;;;;10.22;76.41;97356.91;10247956;28;20750;-58
2022/12/08 14:32:30;;;;;;;35.17;23.92;;;;;;;10.14;77.49;97354.34;10249104;28;20125;-58
2022/12/08 14:37:32;;;;;;;56.17;38.25;;;;;;;10.04;77.03;97358.72;10247860;28;20137;-58
2022/12/08 14:42:42;;;;;;;64.28;40.90;;;;;;;9.94;77.38;97364.84;10248720;28;20066;-58
2022/12/08 14:47:41;;;;;;;50.83;32.22;;;;;;;9.84;78.66;97376.09;10249022;28;20081;-57
2022/12/08 14:52:43;;;;;;;;;;;;;;;9.70;78.27;97369.25;10250700;28;20153;-58
2022/12/08 14:57:42;;;;;;;87.38;51.08;;;;;;;9.56;78.79;97378.81;10248351;28;19949;-58
2022/12/08 15:02:45;;;;;;;47.80;33.17;;;;;;;9.43;79.66;97379.72;10248657;28;20076;-57
2022/12/08 15:07:44;;;;;;;52.78;34.58;;;;;;;9.29;80.17;97372.81;10248635;28;20069;-57
2022/12/08 15:12:57;;;;;;;;;;;;;;;9.17;80.84;97362.47;10249180;28;20078;-58
2022/12/08 15:18:11;;;;;;;94.00;52.28;;;;;;;9.04;81.06;97364.19;10248170;28;19953;-57
2022/12/08 15:23:19;;;;;;;99.60;52.03;;;;;;;8.88;82.10;97349.53;10247923;28;20091;-57
2022/12/08 15:28:20;;;;;;;96.63;63.50;;;;;;;8.60;83.43;97353.88;10247926;28;20531;-57
2022/12/08 15:33:19;;;;;;;87.65;58.47;;;;;;;8.41;84.11;97353.00;10247426;28;20515;-57
2022/12/08 15:38:25;;;;;;;91.25;54.97;;;;;;;8.28;84.52;97355.56;10246925;28;20117;-57
2022/12/08 15:43:25;;;;;;;160.55;110.50;;;;;;;8.05;86.53;97359.81;10247712;28;20639;-57
2022/12/08 15:48:29;;;;;;;151.95;108.85;;;;;;;7.94;87.57;97366.69;10246785;28;20363;-57
2022/12/08 15:53:28;;;;;;;138.07;93.35;;;;;;;7.83;88.56;97361.50;10261479;28;20070;-57
2022/12/08 15:58:27;;;;;;;139.85;98.18;;;;;;;7.87;87.98;97360.63;10246271;28;20046;-57
2022/12/08 16:03:30;;;;;;;197.52;126.32;;;;;;;7.64;89.29;97353.69;10246955;28;20437;-57
2022/12/08 16:08:29;;;;;;;256.92;160.85;;;;;;;7.52;90.53;97374.28;10245345;28;20515;-58
2022/12/08 16:18:46;;;;;;;146.93;92.05;;;;;;;7.37;92.72;97379.31;10242351;28;20540;-57
2022/12/08 16:23:45;;;;;;;125.03;79.22;;;;;;;7.33;92.41;97380.16;10240962;28;20564;-57
2022/12/08 16:28:44;;;;;;;122.88;74.60;;;;;;;7.26;92.53;97368.91;10235811;28;20117;-57
2022/12/08 16:33:43;;;;;;;167.35;95.78;;;;;;;7.23;92.33;97377.50;10240184;28;20049;-57
2022/12/08 16:38:42;;;;;;;115.25;61.38;;;;;;;7.16;92.38;97380.91;10245165;28;20038;-57
2022/12/08 16:43:41;;;;;;;122.13;55.55;;;;;;;6.86;93.51;97393.59;10244600;28;20451;-57
2022/12/08 16:48:40;;;;;;;88.07;41.63;;;;;;;6.69;94.28;97384.00;10243619;28;20045;-57
2022/12/08 16:53:39;;;;;;;59.72;30.55;;;;;;;6.66;94.41;97380.56;10244256;28;20033;-57
2022/12/08 16:58:38;;;;;;;30.98;17.38;;;;;;;6.41;95.03;97380.31;10243913;28;20397;-57
2022/12/08 17:03:38;;;;;;;27.20;16.92;;;;;;;6.36;96.33;97390.59;10244628;28;20046;-58
2022/12/08 17:08:38;;;;;;;56.00;36.03;;;;;;;6.32;95.67;97404.28;10244446;28;20130;-58
2022/12/08 17:13:41;;;;;;;38.90;25.58;;;;;;;6.29;96.07;97412.00;10243055;28;20065;-57
2022/12/08 17:18:40;;;;;;;244.60;128.73;;;;;;;6.24;96.45;97403.34;10243584;28;20073;-57
2022/12/08 17:23:40;;;;;;;62.05;36.33;;;;;;;6.25;96.00;97401.63;10243809;28;20496;-57
2022/12/08 17:28:40;;;;;;;49.80;26.45;;;;;;;6.26;95.52;97398.19;10242282;28;20073;-59
2022/12/08 17:33:40;;;;;;;64.43;39.50;;;;;;;6.30;95.75;97405.97;10241252;28;20130;-57
2022/12/08 17:38:38;;;;;;;;;;;;;;;6.25;95.88;97412.81;10243842;28;20062;-57
2022/12/08 17:43:37;;;;;;;170.93;92.68;;;;;;;6.25;95.38;97417.09;10242479;28;20020;-58
2022/12/08 17:48:36;;;;;;;93.75;52.38;;;;;;;6.12;96.30;97405.81;10242932;28;20525;-57
2022/12/08 17:53:38;;;;;;;45.17;25.05;;;;;;;6.15;95.44;97413.56;10243305;28;20404;-57
2022/12/08 17:58:37;;;;;;;54.60;33.40;;;;;;;6.06;96.71;97414.31;10242001;28;20073;-57
2022/12/08 18:03:38;;;;;;;35.03;20.30;;;;;;;6.04;96.21;97407.41;10242944;28;20042;-57
2022/12/08 18:08:38;;;;;;;65.68;40.45;;;;;;;5.91;96.75;97412.44;10242550;28;20133;-57
2022/12/08 18:13:36;;;;;;;79.63;52.53;;;;;;;5.80;96.87;97419.16;10241320;28;20122;-57
2022/12/08 18:18:36;;;;;;;40.15;25.88;;;;;;;5.57;97.95;97412.84;10243335;28;20022;-55
2022/12/08 18:23:39;;;;;;;40.05;22.98;;;;;;;5.55;98.33;97403.41;10242035;28;20065;-56
2022/12/08 18:28:39;;;;;;;44.00;27.35;;;;;;;5.60;98.49;97408.59;10241990;28;20122;-58
2022/12/08 18:33:39;;;;;;;;;;;;;;;5.63;97.86;97405.22;10243057;28;20113;-57
2022/12/08 18:38:38;;;;;;;42.10;24.90;;;;;;;5.63;98.23;97420.69;10242802;28;20013;-57
2022/12/08 18:43:38;;;;;;;39.08;24.42;;;;;;;5.70;97.68;97423.34;10241608;28;20061;-58
2022/12/08 18:48:39;;;;;;;;;;;;;;;5.66;97.85;97433.56;10250119;28;20069;-57
2022/12/08 18:53:38;;;;;;;48.55;28.73;;;;;;;5.66;97.93;97411.25;10248679;28;20036;-57
2022/12/08 18:58:37;;;;;;;43.38;24.38;;;;;;;5.66;98.43;97431.00;10248088;28;20559;-57
2022/12/08 19:03:38;;;;;;;76.00;46.78;;;;;;;5.63;97.81;97430.97;10249075;28;20110;-57
2022/12/08 19:08:37;;;;;;;59.65;36.15;;;;;;;5.50;98.63;97435.06;10248373;28;20559;-57
2022/12/08 19:13:37;;;;;;;63.97;40.47;;;;;;;5.55;99.05;97447.19;10247322;28;20544;-57
2022/12/08 19:18:37;;;;;;;58.35;36.17;;;;;;;5.51;99.12;97437.69;10249144;28;20383;-57
2022/12/08 19:23:37;;;;;;;51.00;31.50;;;;;;;5.61;99.23;97454.09;10247568;28;20527;-57
2022/12/08 19:28:38;;;;;;;48.78;31.10;;;;;;;5.74;99.02;97452.53;10246035;28;20527;-57
2022/12/08 19:33:38;;;;;;;56.92;35.30;;;;;;;5.82;98.62;97453.53;10246965;28;20137;-57
2022/12/08 19:49:14;;;;;;;184.38;105.43;;;;;;;5.85;97.91;97471.56;10247762;28;20129;-57
2022/12/08 19:54:14;;;;;;;128.70;76.60;;;;;;;5.85;97.96;97488.75;10247228;28;20133;-57
2022/12/08 19:59:14;;;;;;;93.53;59.20;;;;;;;5.67;98.48;97503.09;10245629;28;20112;-56
2022/12/08 20:04:14;;;;;;;85.32;44.20;;;;;;;5.54;99.81;97506.34;10246447;28;20149;-57
2022/12/08 20:09:14;;;;;;;49.33;30.05;;;;;;;5.60;99.32;97503.84;10246356;28;20092;-57
2022/12/08 20:14:13;;;;;;;115.00;59.33;;;;;;;5.71;98.75;97498.84;10244791;28;20377;-57
2022/12/08 20:19:12;;;;;;;67.13;35.92;;;;;;;5.85;98.71;97501.63;10245775;28;20062;-57
2022/12/08 20:24:11;;;;;;;56.85;33.05;;;;;;;5.91;98.28;97504.28;10245744;28;20037;-57
2022/12/08 20:29:10;;;;;;;67.38;35.72;;;;;;;5.94;98.27;97497.44;10245076;28;20108;-57
2022/12/08 20:34:16;;;;;;;76.00;42.38;;;;;;;6.02;98.28;97513.00;10245616;28;20125;-57
2022/12/08 20:39:17;;;;;;;65.50;39.05;;;;;;;5.60;99.68;97521.00;10244736;28;20117;-57
2022/12/08 20:44:16;;;;;;;42.70;24.00;;;;;;;5.46;100.00;97510.50;10244889;28;20495;-58
2022/12/08 20:49:15;;;;;;;45.35;26.88;;;;;;;5.47;100.00;97517.38;10245369;28;20081;-58
2022/12/08 20:54:14;;;;;;;78.43;46.28;;;;;;;5.34;100.00;97529.19;10244117;28;20114;-57
2022/12/08 20:59:15;;;;;;;70.13;41.05;;;;;;;5.30;100.00;97509.41;10244667;28;20034;-58
2022/12/08 21:04:14;;;;;;;63.67;33.65;;;;;;;5.35;100.00;97520.63;10243680;28;20142;-57
2022/12/08 21:09:13;;;;;;;56.65;33.83;;;;;;;5.40;100.00;97520.72;10243760;28;20026;-57
2022/12/08 21:14:12;;;;;;;68.20;40.85;;;;;;;5.38;100.00;97505.25;10243546;28;20042;-57
2022/12/08 21:19:11;;;;;;;86.43;53.90;;;;;;;5.32;100.00;97498.31;10243318;28;20129;-56
2022/12/08 21:24:10;;;;;;;91.40;55.10;;;;;;;5.26;100.00;97494.75;10243580;28;20093;-57
2022/12/08 21:29:10;;;;;;;80.63;50.47;;;;;;;5.23;100.00;97477.56;10243528;28;20080;-58
2022/12/08 21:34:10;;;;;;;82.90;53.55;;;;;;;5.20;100.00;97464.66;10242896;28;20129;-58
2022/12/08 21:39:11;;;;;;;105.57;67.00;;;;;;;5.11;100.00;97467.97;10243277;28;20535;-56
2022/12/08 21:44:13;;;;;;;120.03;74.25;;;;;;;5.03;100.00;97474.66;10243211;28;20125;-57
2022/12/08 21:49:12;;;;;;;109.38;69.13;;;;;;;4.98;100.00;97471.16;10243062;28;20073;-56
2022/12/08 21:54:12;;;;;;;98.60;61.08;;;;;;;4.96;100.00;97493.41;10243040;28;20034;-57
2022/12/08 21:59:11;;;;;;;99.70;61.38;;;;;;;5.00;100.00;97484.06;10242789;28;20519;-56
2022/12/08 22:04:14;;;;;;;106.80;63.50;;;;;;;5.04;100.00;97475.53;10242218;28;20047;-57
2022/12/08 22:09:13;;;;;;;108.15;63.33;;;;;;;5.02;100.00;97483.25;10242479;28;20121;-56
2022/12/08 22:14:12;;;;;;;98.57;61.75;;;;;;;5.05;100.00;97478.13;10242256;28;20351;-56
2022/12/08 22:19:11;;;;;;;96.57;59.40;;;;;;;5.16;100.00;97469.72;10242402;28;20042;-56
2022/12/08 22:24:10;;;;;;;106.75;64.68;;;;;;;5.19;100.00;97480.06;10251014;28;20279;-56
2022/12/08 22:29:09;;;;;;;112.20;68.10;;;;;;;5.15;100.00;97481.72;10250458;28;20042;-56
2022/12/08 22:34:10;;;;;;;121.97;74.72;;;;;;;5.14;100.00;97472.28;10249712;28;20053;-56
2022/12/08 22:39:09;;;;;;;113.32;68.32;;;;;;;5.02;100.00;97472.09;10249864;28;20077;-56
2022/12/08 22:44:08;;;;;;;133.38;84.18;;;;;;;4.98;100.00;97468.59;10249975;28;20195;-56
2022/12/08 22:49:07;;;;;;;134.02;85.38;;;;;;;5.08;100.00;97473.03;10249108;28;20062;-56
2022/12/08 22:54:09;;;;;;;143.52;88.82;;;;;;;5.10;100.00;97463.63;10249785;28;20142;-56
2022/12/08 22:59:08;;;;;;;143.70;99.55;;;;;;;5.02;100.00;97475.53;10249123;28;20539;-56
2022/12/08 23:04:09;;;;;;;129.27;77.28;;;;;;;5.00;100.00;97481.50;10247844;28;20129;-56
2022/12/08 23:09:08;;;;;;;109.00;70.28;;;;;;;4.93;100.00;97467.63;10244527;28;20642;-57
2022/12/08 23:14:07;;;;;;;100.22;61.70;;;;;;;4.96;100.00;97462.56;10245754;28;20623;-57
2022/12/08 23:19:06;;;;;;;91.78;55.53;;;;;;;5.01;100.00;97448.06;10245977;28;20034;-57
2022/12/08 23:24:05;;;;;;;76.18;48.50;;;;;;;5.05;100.00;97451.56;10248244;28;20026;-57